sensor_id;sensor_type;location;lat;lon;timestamp;P1;durP1;ratioP1;P2;durP2;ratioP2
54416;SDS011;40326;51.220;7.250;2023-03-01T00:02:02;12.02;;;8.15;;
54416;SDS011;40326;51.220;7.250;2023-03-01T00:04:29;17.10;;;8.70;;
54416;SDS011;40326;51.220;7.250;2023-03-01T00:06:54;13.30;;;8.57;;
54416;SDS011;40326;51.220;7.250;2023-03-01T00:09:19;11.10;;;7.70;;
54416;SDS011;40326;51.220;7.250;2023-03-01T00:11:45;14.55;;;9.55;;
54416;SDS011;40326;51.220;7.250;2023-03-01T00:14:10;12.63;;;8.40;;
54416;SDS011;40326;51.220;7.250;2023-03-01T00:16:36;12.45;;;8.55;;
54416;SDS011;40326;51.220;7.250;2023-03-01T00:19:03;14.27;;;8.63;;
54416;SDS011;40326;51.220;7.250;2023-03-01T00:21:29;11.68;;;7.80;;
54416;SDS011;40326;51.220;7.250;2023-03-01T00:23:54;13.68;;;9.20;;
54416;SDS011;40326;51.220;7.250;2023-03-01T00:26:20;13.00;;;8.68;;
54416;SDS011;40326;51.220;7.250;2023-03-01T00:28:46;11.10;;;8.02;;
54416;SDS011;40326;51.220;7.250;2023-03-01T00:31:12;13.48;;;8.73;;
54416;SDS011;40326;51.220;7.250;2023-03-01T00:33:38;12.68;;;9.10;;
54416;SDS011;40326;51.220;7.250;2023-03-01T00:36:03;13.30;;;8.55;;
54416;SDS011;40326;51.220;7.250;2023-03-01T00:38:29;13.63;;;9.35;;
54416;SDS011;40326;51.220;7.250;2023-03-01T00:40:54;13.00;;;7.78;;
54416;SDS011;40326;51.220;7.250;2023-03-01T00:43:19;13.95;;;8.48;;
54416;SDS011;40326;51.220;7.250;2023-03-01T00:45:44;11.90;;;8.43;;
54416;SDS011;40326;51.220;7.250;2023-03-01T00:48:10;14.68;;;9.07;;
54416;SDS011;40326;51.220;7.250;2023-03-01T00:50:35;14.15;;;8.82;;
54416;SDS011;40326;51.220;7.250;2023-03-01T00:53:00;18.95;;;9.95;;
54416;SDS011;40326;51.220;7.250;2023-03-01T00:55:25;14.25;;;9.15;;
54416;SDS011;40326;51.220;7.250;2023-03-01T00:57:51;15.25;;;8.35;;
54416;SDS011;40326;51.220;7.250;2023-03-01T01:00:16;14.18;;;9.55;;
54416;SDS011;40326;51.220;7.250;2023-03-01T01:02:41;15.05;;;9.45;;
54416;SDS011;40326;51.220;7.250;2023-03-01T01:05:07;15.98;;;10.02;;
54416;SDS011;40326;51.220;7.250;2023-03-01T01:07:32;17.95;;;10.68;;
54416;SDS011;40326;51.220;7.250;2023-03-01T01:09:57;17.60;;;10.45;;
54416;SDS011;40326;51.220;7.250;2023-03-01T01:12:23;82.22;;;52.42;;
54416;SDS011;40326;51.220;7.250;2023-03-01T01:14:48;32.80;;;21.73;;
54416;SDS011;40326;51.220;7.250;2023-03-01T01:17:13;16.73;;;11.23;;
54416;SDS011;40326;51.220;7.250;2023-03-01T01:19:38;15.00;;;10.13;;
54416;SDS011;40326;51.220;7.250;2023-03-01T01:22:03;28.42;;;25.33;;
54416;SDS011;40326;51.220;7.250;2023-03-01T01:24:29;16.00;;;10.55;;
54416;SDS011;40326;51.220;7.250;2023-03-01T01:26:54;17.42;;;12.30;;
54416;SDS011;40326;51.220;7.250;2023-03-01T01:29:19;15.70;;;10.63;;
54416;SDS011;40326;51.220;7.250;2023-03-01T01:31:44;16.17;;;9.30;;
54416;SDS011;40326;51.220;7.250;2023-03-01T01:34:14;15.38;;;9.93;;
54416;SDS011;40326;51.220;7.250;2023-03-01T01:36:40;17.33;;;10.05;;
54416;SDS011;40326;51.220;7.250;2023-03-01T01:39:05;16.95;;;9.20;;
54416;SDS011;40326;51.220;7.250;2023-03-01T01:41:31;16.88;;;10.75;;
54416;SDS011;40326;51.220;7.250;2023-03-01T01:46:46;15.65;;;10.43;;
54416;SDS011;40326;51.220;7.250;2023-03-01T01:49:16;15.75;;;10.75;;
54416;SDS011;40326;51.220;7.250;2023-03-01T01:51:43;16.65;;;10.38;;
54416;SDS011;40326;51.220;7.250;2023-03-01T01:54:14;18.95;;;10.90;;
54416;SDS011;40326;51.220;7.250;2023-03-01T01:56:40;16.45;;;10.10;;
54416;SDS011;40326;51.220;7.250;2023-03-01T01:59:06;18.85;;;10.77;;
54416;SDS011;40326;51.220;7.250;2023-03-01T02:01:32;15.60;;;10.18;;
54416;SDS011;40326;51.220;7.250;2023-03-01T02:03:57;18.40;;;11.38;;
54416;SDS011;40326;51.220;7.250;2023-03-01T02:06:27;18.15;;;10.15;;
54416;SDS011;40326;51.220;7.250;2023-03-01T02:08:54;16.77;;;9.93;;
54416;SDS011;40326;51.220;7.250;2023-03-01T02:11:20;16.02;;;9.93;;
54416;SDS011;40326;51.220;7.250;2023-03-01T02:13:46;14.75;;;8.93;;
54416;SDS011;40326;51.220;7.250;2023-03-01T02:16:12;16.50;;;10.18;;
54416;SDS011;40326;51.220;7.250;2023-03-01T02:18:39;16.17;;;10.23;;
54416;SDS011;40326;51.220;7.250;2023-03-01T02:21:08;14.02;;;9.80;;
54416;SDS011;40326;51.220;7.250;2023-03-01T02:23:37;14.37;;;9.33;;
54416;SDS011;40326;51.220;7.250;2023-03-01T02:26:05;17.95;;;10.52;;
54416;SDS011;40326;51.220;7.250;2023-03-01T02:28:35;15.32;;;10.45;;
54416;SDS011;40326;51.220;7.250;2023-03-01T02:31:01;16.67;;;10.10;;
54416;SDS011;40326;51.220;7.250;2023-03-01T02:33:45;15.07;;;9.52;;
54416;SDS011;40326;51.220;7.250;2023-03-01T02:36:21;16.50;;;10.18;;
54416;SDS011;40326;51.220;7.250;2023-03-01T02:38:48;15.35;;;9.48;;
54416;SDS011;40326;51.220;7.250;2023-03-01T02:41:15;17.42;;;10.27;;
54416;SDS011;40326;51.220;7.250;2023-03-01T02:43:41;17.67;;;10.55;;
54416;SDS011;40326;51.220;7.250;2023-03-01T02:46:07;16.63;;;10.50;;
54416;SDS011;40326;51.220;7.250;2023-03-01T02:48:40;17.27;;;10.52;;
54416;SDS011;40326;51.220;7.250;2023-03-01T02:51:08;17.40;;;10.13;;
54416;SDS011;40326;51.220;7.250;2023-03-01T02:56:00;16.45;;;10.15;;
54416;SDS011;40326;51.220;7.250;2023-03-01T02:58:26;19.05;;;11.25;;
54416;SDS011;40326;51.220;7.250;2023-03-01T03:00:51;15.00;;;9.98;;
54416;SDS011;40326;51.220;7.250;2023-03-01T03:03:16;20.45;;;11.35;;
54416;SDS011;40326;51.220;7.250;2023-03-01T03:05:42;18.52;;;10.43;;
54416;SDS011;40326;51.220;7.250;2023-03-01T03:08:07;19.70;;;11.73;;
54416;SDS011;40326;51.220;7.250;2023-03-01T03:10:34;16.63;;;10.68;;
54416;SDS011;40326;51.220;7.250;2023-03-01T03:13:04;20.38;;;10.25;;
54416;SDS011;40326;51.220;7.250;2023-03-01T03:15:30;17.85;;;9.88;;
54416;SDS011;40326;51.220;7.250;2023-03-01T03:17:56;17.67;;;11.35;;
54416;SDS011;40326;51.220;7.250;2023-03-01T03:20:23;17.73;;;11.23;;
54416;SDS011;40326;51.220;7.250;2023-03-01T03:22:50;19.42;;;11.73;;
54416;SDS011;40326;51.220;7.250;2023-03-01T03:25:18;18.13;;;10.68;;
54416;SDS011;40326;51.220;7.250;2023-03-01T03:27:44;19.25;;;10.00;;
54416;SDS011;40326;51.220;7.250;2023-03-01T03:30:11;17.60;;;11.65;;
54416;SDS011;40326;51.220;7.250;2023-03-01T03:32:41;18.23;;;11.70;;
54416;SDS011;40326;51.220;7.250;2023-03-01T03:35:08;21.42;;;10.73;;
54416;SDS011;40326;51.220;7.250;2023-03-01T03:37:39;17.52;;;11.40;;
54416;SDS011;40326;51.220;7.250;2023-03-01T03:40:24;16.27;;;9.93;;
54416;SDS011;40326;51.220;7.250;2023-03-01T03:42:49;17.80;;;10.27;;
54416;SDS011;40326;51.220;7.250;2023-03-01T03:45:17;20.05;;;11.13;;
54416;SDS011;40326;51.220;7.250;2023-03-01T03:47:43;19.73;;;11.50;;
54416;SDS011;40326;51.220;7.250;2023-03-01T03:50:09;20.38;;;11.95;;
54416;SDS011;40326;51.220;7.250;2023-03-01T03:52:34;19.05;;;11.55;;
54416;SDS011;40326;51.220;7.250;2023-03-01T03:55:00;19.80;;;11.00;;
54416;SDS011;40326;51.220;7.250;2023-03-01T03:57:25;19.63;;;10.70;;
54416;SDS011;40326;51.220;7.250;2023-03-01T03:59:50;18.63;;;10.45;;
54416;SDS011;40326;51.220;7.250;2023-03-01T04:02:15;19.00;;;12.00;;
54416;SDS011;40326;51.220;7.250;2023-03-01T04:04:47;17.75;;;11.43;;
54416;SDS011;40326;51.220;7.250;2023-03-01T04:07:14;17.90;;;11.30;;
54416;SDS011;40326;51.220;7.250;2023-03-01T04:09:39;20.30;;;11.48;;
54416;SDS011;40326;51.220;7.250;2023-03-01T04:12:06;24.05;;;14.40;;
54416;SDS011;40326;51.220;7.250;2023-03-01T04:14:31;20.83;;;12.18;;
54416;SDS011;40326;51.220;7.250;2023-03-01T04:16:57;18.50;;;12.45;;
54416;SDS011;40326;51.220;7.250;2023-03-01T04:19:22;18.08;;;12.13;;
54416;SDS011;40326;51.220;7.250;2023-03-01T04:21:47;20.40;;;12.93;;
54416;SDS011;40326;51.220;7.250;2023-03-01T04:24:12;20.67;;;12.05;;
54416;SDS011;40326;51.220;7.250;2023-03-01T04:26:38;25.13;;;18.67;;
54416;SDS011;40326;51.220;7.250;2023-03-01T04:29:03;20.60;;;13.18;;
54416;SDS011;40326;51.220;7.250;2023-03-01T04:31:28;18.83;;;12.05;;
54416;SDS011;40326;51.220;7.250;2023-03-01T04:33:54;21.98;;;15.20;;
54416;SDS011;40326;51.220;7.250;2023-03-01T04:36:24;21.10;;;12.65;;
54416;SDS011;40326;51.220;7.250;2023-03-01T04:38:49;19.45;;;12.25;;
54416;SDS011;40326;51.220;7.250;2023-03-01T04:41:18;23.80;;;15.07;;
54416;SDS011;40326;51.220;7.250;2023-03-01T04:43:44;25.20;;;14.25;;
54416;SDS011;40326;51.220;7.250;2023-03-01T04:46:13;22.75;;;12.13;;
54416;SDS011;40326;51.220;7.250;2023-03-01T04:48:39;22.48;;;13.55;;
54416;SDS011;40326;51.220;7.250;2023-03-01T04:51:05;21.63;;;12.63;;
54416;SDS011;40326;51.220;7.250;2023-03-01T04:53:30;20.90;;;12.27;;
54416;SDS011;40326;51.220;7.250;2023-03-01T04:55:57;20.92;;;12.40;;
54416;SDS011;40326;51.220;7.250;2023-03-01T04:58:23;21.08;;;11.77;;
54416;SDS011;40326;51.220;7.250;2023-03-01T05:00:48;18.90;;;12.30;;
54416;SDS011;40326;51.220;7.250;2023-03-01T05:03:13;19.90;;;13.30;;
54416;SDS011;40326;51.220;7.250;2023-03-01T05:05:43;22.50;;;13.07;;
54416;SDS011;40326;51.220;7.250;2023-03-01T05:08:09;20.92;;;12.55;;
54416;SDS011;40326;51.220;7.250;2023-03-01T05:10:41;21.38;;;12.15;;
54416;SDS011;40326;51.220;7.250;2023-03-01T05:13:07;22.65;;;12.82;;
54416;SDS011;40326;51.220;7.250;2023-03-01T05:15:32;21.67;;;12.70;;
54416;SDS011;40326;51.220;7.250;2023-03-01T05:17:58;21.58;;;11.82;;
54416;SDS011;40326;51.220;7.250;2023-03-01T05:20:24;20.23;;;13.13;;
54416;SDS011;40326;51.220;7.250;2023-03-01T05:22:50;18.83;;;11.85;;
54416;SDS011;40326;51.220;7.250;2023-03-01T05:25:16;21.10;;;13.18;;
54416;SDS011;40326;51.220;7.250;2023-03-01T05:27:41;20.52;;;12.75;;
54416;SDS011;40326;51.220;7.250;2023-03-01T05:30:07;21.83;;;12.60;;
54416;SDS011;40326;51.220;7.250;2023-03-01T05:32:40;20.88;;;12.60;;
54416;SDS011;40326;51.220;7.250;2023-03-01T05:35:05;20.48;;;12.32;;
54416;SDS011;40326;51.220;7.250;2023-03-01T05:37:30;19.17;;;12.18;;
54416;SDS011;40326;51.220;7.250;2023-03-01T05:39:55;19.98;;;12.30;;
54416;SDS011;40326;51.220;7.250;2023-03-01T05:42:21;21.33;;;13.55;;
54416;SDS011;40326;51.220;7.250;2023-03-01T05:44:46;22.73;;;13.27;;
54416;SDS011;40326;51.220;7.250;2023-03-01T05:47:11;20.02;;;12.77;;
54416;SDS011;40326;51.220;7.250;2023-03-01T05:49:36;25.45;;;14.13;;
54416;SDS011;40326;51.220;7.250;2023-03-01T05:52:01;24.25;;;13.35;;
54416;SDS011;40326;51.220;7.250;2023-03-01T05:54:26;24.13;;;14.10;;
54416;SDS011;40326;51.220;7.250;2023-03-01T05:56:53;23.25;;;14.15;;
54416;SDS011;40326;51.220;7.250;2023-03-01T05:59:18;22.35;;;12.50;;
54416;SDS011;40326;51.220;7.250;2023-03-01T06:01:43;23.45;;;13.07;;
54416;SDS011;40326;51.220;7.250;2023-03-01T06:04:08;21.65;;;13.48;;
54416;SDS011;40326;51.220;7.250;2023-03-01T06:06:34;23.10;;;13.73;;
54416;SDS011;40326;51.220;7.250;2023-03-01T06:09:02;22.95;;;13.90;;
54416;SDS011;40326;51.220;7.250;2023-03-01T06:11:27;26.00;;;14.65;;
54416;SDS011;40326;51.220;7.250;2023-03-01T06:13:52;24.35;;;13.57;;
54416;SDS011;40326;51.220;7.250;2023-03-01T06:16:18;21.58;;;12.57;;
54416;SDS011;40326;51.220;7.250;2023-03-01T06:18:43;23.25;;;14.57;;
54416;SDS011;40326;51.220;7.250;2023-03-01T06:21:08;26.88;;;14.35;;
54416;SDS011;40326;51.220;7.250;2023-03-01T06:23:34;23.67;;;13.15;;
54416;SDS011;40326;51.220;7.250;2023-03-01T06:25:59;24.55;;;13.05;;
54416;SDS011;40326;51.220;7.250;2023-03-01T06:28:24;26.23;;;15.07;;
54416;SDS011;40326;51.220;7.250;2023-03-01T06:30:50;25.95;;;13.60;;
54416;SDS011;40326;51.220;7.250;2023-03-01T06:33:16;24.88;;;15.55;;
54416;SDS011;40326;51.220;7.250;2023-03-01T06:35:43;23.65;;;14.50;;
54416;SDS011;40326;51.220;7.250;2023-03-01T06:38:08;23.88;;;14.45;;
54416;SDS011;40326;51.220;7.250;2023-03-01T06:40:34;22.38;;;14.57;;
54416;SDS011;40326;51.220;7.250;2023-03-01T06:43:00;24.15;;;13.63;;
54416;SDS011;40326;51.220;7.250;2023-03-01T06:45:25;26.45;;;14.68;;
54416;SDS011;40326;51.220;7.250;2023-03-01T06:47:51;26.38;;;14.80;;
54416;SDS011;40326;51.220;7.250;2023-03-01T06:50:16;23.33;;;14.02;;
54416;SDS011;40326;51.220;7.250;2023-03-01T06:52:42;27.65;;;16.88;;
54416;SDS011;40326;51.220;7.250;2023-03-01T06:55:09;28.05;;;16.08;;
54416;SDS011;40326;51.220;7.250;2023-03-01T06:57:34;27.50;;;14.43;;
54416;SDS011;40326;51.220;7.250;2023-03-01T06:59:59;23.40;;;14.52;;
54416;SDS011;40326;51.220;7.250;2023-03-01T07:02:25;24.77;;;15.40;;
54416;SDS011;40326;51.220;7.250;2023-03-01T07:04:50;23.10;;;14.40;;
54416;SDS011;40326;51.220;7.250;2023-03-01T07:07:15;25.48;;;14.30;;
54416;SDS011;40326;51.220;7.250;2023-03-01T07:09:40;23.25;;;13.63;;
54416;SDS011;40326;51.220;7.250;2023-03-01T07:12:06;23.23;;;14.10;;
54416;SDS011;40326;51.220;7.250;2023-03-01T07:14:31;22.70;;;14.05;;
54416;SDS011;40326;51.220;7.250;2023-03-01T07:16:56;24.55;;;14.77;;
54416;SDS011;40326;51.220;7.250;2023-03-01T07:19:22;23.05;;;15.02;;
54416;SDS011;40326;51.220;7.250;2023-03-01T07:21:47;24.00;;;14.55;;
54416;SDS011;40326;51.220;7.250;2023-03-01T07:24:12;27.15;;;14.90;;
54416;SDS011;40326;51.220;7.250;2023-03-01T07:26:38;26.00;;;14.80;;
54416;SDS011;40326;51.220;7.250;2023-03-01T07:29:03;26.98;;;15.38;;
54416;SDS011;40326;51.220;7.250;2023-03-01T07:31:29;26.17;;;16.95;;
54416;SDS011;40326;51.220;7.250;2023-03-01T07:33:55;26.50;;;15.98;;
54416;SDS011;40326;51.220;7.250;2023-03-01T07:36:20;23.95;;;15.18;;
54416;SDS011;40326;51.220;7.250;2023-03-01T07:38:46;21.83;;;13.88;;
54416;SDS011;40326;51.220;7.250;2023-03-01T07:41:11;20.92;;;14.48;;
54416;SDS011;40326;51.220;7.250;2023-03-01T07:43:36;23.13;;;14.63;;
54416;SDS011;40326;51.220;7.250;2023-03-01T07:46:02;22.05;;;14.30;;
54416;SDS011;40326;51.220;7.250;2023-03-01T07:48:27;18.58;;;12.18;;
54416;SDS011;40326;51.220;7.250;2023-03-01T07:50:53;19.42;;;13.82;;
54416;SDS011;40326;51.220;7.250;2023-03-01T07:53:18;20.23;;;13.80;;
54416;SDS011;40326;51.220;7.250;2023-03-01T07:55:43;21.33;;;13.75;;
54416;SDS011;40326;51.220;7.250;2023-03-01T07:58:08;18.40;;;13.50;;
54416;SDS011;40326;51.220;7.250;2023-03-01T08:00:33;19.10;;;13.02;;
54416;SDS011;40326;51.220;7.250;2023-03-01T08:02:59;20.05;;;12.57;;
54416;SDS011;40326;51.220;7.250;2023-03-01T08:05:25;18.30;;;13.00;;
54416;SDS011;40326;51.220;7.250;2023-03-01T08:07:50;19.10;;;13.38;;
54416;SDS011;40326;51.220;7.250;2023-03-01T08:10:16;18.42;;;12.70;;
54416;SDS011;40326;51.220;7.250;2023-03-01T08:12:41;19.67;;;12.40;;
54416;SDS011;40326;51.220;7.250;2023-03-01T08:15:06;20.73;;;13.13;;
54416;SDS011;40326;51.220;7.250;2023-03-01T08:17:32;22.35;;;13.38;;
54416;SDS011;40326;51.220;7.250;2023-03-01T08:19:57;17.85;;;12.02;;
54416;SDS011;40326;51.220;7.250;2023-03-01T08:22:22;20.80;;;12.88;;
54416;SDS011;40326;51.220;7.250;2023-03-01T08:24:47;18.30;;;12.50;;
54416;SDS011;40326;51.220;7.250;2023-03-01T08:27:14;18.70;;;12.07;;
54416;SDS011;40326;51.220;7.250;2023-03-01T08:29:39;15.82;;;11.77;;
54416;SDS011;40326;51.220;7.250;2023-03-01T08:32:04;17.13;;;12.05;;
54416;SDS011;40326;51.220;7.250;2023-03-01T08:34:29;16.42;;;11.18;;
54416;SDS011;40326;51.220;7.250;2023-03-01T08:36:56;16.40;;;11.77;;
54416;SDS011;40326;51.220;7.250;2023-03-01T08:39:21;16.52;;;12.05;;
54416;SDS011;40326;51.220;7.250;2023-03-01T08:41:46;15.00;;;11.23;;
54416;SDS011;40326;51.220;7.250;2023-03-01T08:44:12;18.63;;;12.18;;
54416;SDS011;40326;51.220;7.250;2023-03-01T08:46:39;15.27;;;11.02;;
54416;SDS011;40326;51.220;7.250;2023-03-01T08:49:15;15.00;;;10.45;;
54416;SDS011;40326;51.220;7.250;2023-03-01T08:51:41;16.58;;;11.35;;
54416;SDS011;40326;51.220;7.250;2023-03-01T08:54:07;15.13;;;11.93;;
54416;SDS011;40326;51.220;7.250;2023-03-01T08:56:35;16.90;;;11.30;;
54416;SDS011;40326;51.220;7.250;2023-03-01T08:59:01;14.60;;;10.70;;
54416;SDS011;40326;51.220;7.250;2023-03-01T09:01:26;15.27;;;11.25;;
54416;SDS011;40326;51.220;7.250;2023-03-01T09:03:51;15.23;;;10.45;;
54416;SDS011;40326;51.220;7.250;2023-03-01T09:06:16;14.75;;;11.00;;
54416;SDS011;40326;51.220;7.250;2023-03-01T09:08:42;15.90;;;10.43;;
54416;SDS011;40326;51.220;7.250;2023-03-01T09:11:08;16.23;;;10.77;;
54416;SDS011;40326;51.220;7.250;2023-03-01T09:13:34;15.75;;;10.48;;
54416;SDS011;40326;51.220;7.250;2023-03-01T09:16:00;14.50;;;10.43;;
54416;SDS011;40326;51.220;7.250;2023-03-01T09:18:26;13.48;;;10.05;;
54416;SDS011;40326;51.220;7.250;2023-03-01T09:20:51;13.77;;;10.30;;
54416;SDS011;40326;51.220;7.250;2023-03-01T09:23:16;15.32;;;10.82;;
54416;SDS011;40326;51.220;7.250;2023-03-01T09:25:41;12.60;;;9.18;;
54416;SDS011;40326;51.220;7.250;2023-03-01T09:28:06;12.70;;;9.00;;
54416;SDS011;40326;51.220;7.250;2023-03-01T09:30:32;15.10;;;9.93;;
54416;SDS011;40326;51.220;7.250;2023-03-01T09:32:57;12.52;;;9.10;;
54416;SDS011;40326;51.220;7.250;2023-03-01T09:35:22;14.23;;;9.23;;
54416;SDS011;40326;51.220;7.250;2023-03-01T09:37:48;14.05;;;9.43;;
54416;SDS011;40326;51.220;7.250;2023-03-01T09:40:16;15.13;;;9.70;;
54416;SDS011;40326;51.220;7.250;2023-03-01T09:43:25;10.95;;;8.05;;
54416;SDS011;40326;51.220;7.250;2023-03-01T09:45:34;13.88;;;9.02;;
54416;SDS011;40326;51.220;7.250;2023-03-01T09:48:00;13.00;;;8.93;;
54416;SDS011;40326;51.220;7.250;2023-03-01T09:50:26;12.18;;;8.35;;
54416;SDS011;40326;51.220;7.250;2023-03-01T09:53:02;12.88;;;9.55;;
54416;SDS011;40326;51.220;7.250;2023-03-01T09:55:39;11.95;;;8.65;;
54416;SDS011;40326;51.220;7.250;2023-03-01T10:00:49;11.23;;;8.95;;
54416;SDS011;40326;51.220;7.250;2023-03-01T10:03:20;13.02;;;9.43;;
54416;SDS011;40326;51.220;7.250;2023-03-01T10:05:56;12.77;;;8.93;;
54416;SDS011;40326;51.220;7.250;2023-03-01T10:08:26;12.55;;;9.23;;
54416;SDS011;40326;51.220;7.250;2023-03-01T10:10:54;14.50;;;8.90;;
54416;SDS011;40326;51.220;7.250;2023-03-01T10:13:21;12.85;;;9.20;;
54416;SDS011;40326;51.220;7.250;2023-03-01T10:15:49;13.95;;;9.70;;
54416;SDS011;40326;51.220;7.250;2023-03-01T10:18:21;13.93;;;9.57;;
54416;SDS011;40326;51.220;7.250;2023-03-01T10:23:17;10.27;;;8.15;;
54416;SDS011;40326;51.220;7.250;2023-03-01T10:31:00;12.93;;;9.15;;
54416;SDS011;40326;51.220;7.250;2023-03-01T10:33:29;12.68;;;9.15;;
54416;SDS011;40326;51.220;7.250;2023-03-01T10:35:55;11.65;;;8.52;;
54416;SDS011;40326;51.220;7.250;2023-03-01T10:38:21;11.60;;;8.75;;
54416;SDS011;40326;51.220;7.250;2023-03-01T10:40:50;12.57;;;9.98;;
54416;SDS011;40326;51.220;7.250;2023-03-01T10:43:16;12.98;;;9.15;;
54416;SDS011;40326;51.220;7.250;2023-03-01T10:45:41;13.52;;;8.93;;
54416;SDS011;40326;51.220;7.250;2023-03-01T10:48:11;12.90;;;8.23;;
54416;SDS011;40326;51.220;7.250;2023-03-01T10:50:38;12.45;;;9.20;;
54416;SDS011;40326;51.220;7.250;2023-03-01T10:53:04;11.10;;;8.60;;
54416;SDS011;40326;51.220;7.250;2023-03-01T10:55:31;13.57;;;9.45;;
54416;SDS011;40326;51.220;7.250;2023-03-01T10:58:18;11.48;;;7.90;;
54416;SDS011;40326;51.220;7.250;2023-03-01T11:00:51;11.57;;;8.55;;
54416;SDS011;40326;51.220;7.250;2023-03-01T11:08:45;12.77;;;8.40;;
54416;SDS011;40326;51.220;7.250;2023-03-01T11:11:18;12.90;;;8.00;;
54416;SDS011;40326;51.220;7.250;2023-03-01T11:16:31;12.15;;;8.07;;
54416;SDS011;40326;51.220;7.250;2023-03-01T11:19:03;11.50;;;8.10;;
54416;SDS011;40326;51.220;7.250;2023-03-01T11:21:29;12.18;;;8.57;;
54416;SDS011;40326;51.220;7.250;2023-03-01T11:23:56;11.70;;;8.98;;
54416;SDS011;40326;51.220;7.250;2023-03-01T11:26:21;11.98;;;8.45;;
54416;SDS011;40326;51.220;7.250;2023-03-01T11:28:49;10.95;;;8.63;;
54416;SDS011;40326;51.220;7.250;2023-03-01T11:31:15;11.13;;;8.07;;
54416;SDS011;40326;51.220;7.250;2023-03-01T11:33:46;11.00;;;7.90;;
54416;SDS011;40326;51.220;7.250;2023-03-01T11:38:38;13.70;;;8.53;;
54416;SDS011;40326;51.220;7.250;2023-03-01T11:41:14;10.80;;;8.00;;
54416;SDS011;40326;51.220;7.250;2023-03-01T11:43:44;11.77;;;8.30;;
54416;SDS011;40326;51.220;7.250;2023-03-01T11:48:44;10.27;;;7.47;;
54416;SDS011;40326;51.220;7.250;2023-03-01T11:56:56;10.82;;;8.13;;
54416;SDS011;40326;51.220;7.250;2023-03-01T12:07:18;11.48;;;7.38;;
54416;SDS011;40326;51.220;7.250;2023-03-01T12:12:30;11.80;;;7.85;;
54416;SDS011;40326;51.220;7.250;2023-03-01T12:17:31;8.93;;;6.63;;
54416;SDS011;40326;51.220;7.250;2023-03-01T12:21:01;10.38;;;7.60;;
54416;SDS011;40326;51.220;7.250;2023-03-01T12:25:54;10.52;;;7.65;;
54416;SDS011;40326;51.220;7.250;2023-03-01T12:31:11;11.13;;;8.02;;
54416;SDS011;40326;51.220;7.250;2023-03-01T12:33:53;10.35;;;7.95;;
54416;SDS011;40326;51.220;7.250;2023-03-01T12:38:57;11.52;;;7.95;;
54416;SDS011;40326;51.220;7.250;2023-03-01T12:44:01;9.73;;;7.45;;
54416;SDS011;40326;51.220;7.250;2023-03-01T12:46:35;10.57;;;7.50;;
54416;SDS011;40326;51.220;7.250;2023-03-01T12:49:10;12.45;;;7.75;;
54416;SDS011;40326;51.220;7.250;2023-03-01T12:51:38;12.80;;;8.32;;
54416;SDS011;40326;51.220;7.250;2023-03-01T12:54:15;12.73;;;7.93;;
54416;SDS011;40326;51.220;7.250;2023-03-01T12:56:41;12.32;;;7.72;;
54416;SDS011;40326;51.220;7.250;2023-03-01T13:11:43;10.57;;;8.07;;
54416;SDS011;40326;51.220;7.250;2023-03-01T13:16:46;11.57;;;7.55;;
54416;SDS011;40326;51.220;7.250;2023-03-01T13:19:20;10.65;;;7.50;;
54416;SDS011;40326;51.220;7.250;2023-03-01T13:21:46;11.20;;;8.32;;
54416;SDS011;40326;51.220;7.250;2023-03-01T13:27:09;11.23;;;7.82;;
54416;SDS011;40326;51.220;7.250;2023-03-01T13:29:47;11.02;;;7.97;;
54416;SDS011;40326;51.220;7.250;2023-03-01T13:34:47;11.90;;;8.23;;
54416;SDS011;40326;51.220;7.250;2023-03-01T13:37:21;12.07;;;8.55;;
54416;SDS011;40326;51.220;7.250;2023-03-01T13:39:47;10.70;;;7.43;;
54416;SDS011;40326;51.220;7.250;2023-03-01T13:42:29;12.85;;;8.00;;
54416;SDS011;40326;51.220;7.250;2023-03-01T13:44:56;11.00;;;7.88;;
54416;SDS011;40326;51.220;7.250;2023-03-01T13:47:21;11.73;;;8.18;;
54416;SDS011;40326;51.220;7.250;2023-03-01T13:52:35;12.18;;;8.40;;
54416;SDS011;40326;51.220;7.250;2023-03-01T13:55:03;13.13;;;8.30;;
54416;SDS011;40326;51.220;7.250;2023-03-01T13:57:35;12.57;;;8.77;;
54416;SDS011;40326;51.220;7.250;2023-03-01T14:00:04;11.27;;;8.10;;
54416;SDS011;40326;51.220;7.250;2023-03-01T14:02:29;10.48;;;7.72;;
54416;SDS011;40326;51.220;7.250;2023-03-01T14:04:58;10.77;;;7.90;;
54416;SDS011;40326;51.220;7.250;2023-03-01T14:07:25;13.23;;;8.25;;
54416;SDS011;40326;51.220;7.250;2023-03-01T14:09:54;12.70;;;8.10;;
54416;SDS011;40326;51.220;7.250;2023-03-01T14:20:17;12.02;;;8.25;;
54416;SDS011;40326;51.220;7.250;2023-03-01T14:22:43;12.23;;;7.68;;
54416;SDS011;40326;51.220;7.250;2023-03-01T14:27:43;12.93;;;8.38;;
54416;SDS011;40326;51.220;7.250;2023-03-01T14:30:18;12.13;;;7.10;;
54416;SDS011;40326;51.220;7.250;2023-03-01T14:32:51;12.13;;;7.10;;
54416;SDS011;40326;51.220;7.250;2023-03-01T14:35:27;12.25;;;8.05;;
54416;SDS011;40326;51.220;7.250;2023-03-01T14:37:52;10.40;;;7.57;;
54416;SDS011;40326;51.220;7.250;2023-03-01T14:40:32;12.98;;;7.30;;
54416;SDS011;40326;51.220;7.250;2023-03-01T14:42:58;11.18;;;7.30;;
54416;SDS011;40326;51.220;7.250;2023-03-01T14:45:24;12.65;;;7.75;;
54416;SDS011;40326;51.220;7.250;2023-03-01T14:47:51;10.73;;;7.35;;
54416;SDS011;40326;51.220;7.250;2023-03-01T14:50:26;10.85;;;6.65;;
54416;SDS011;40326;51.220;7.250;2023-03-01T14:52:53;9.23;;;6.47;;
54416;SDS011;40326;51.220;7.250;2023-03-01T14:55:40;10.07;;;6.25;;
54416;SDS011;40326;51.220;7.250;2023-03-01T14:58:08;11.23;;;7.07;;
54416;SDS011;40326;51.220;7.250;2023-03-01T15:00:34;9.85;;;6.53;;
54416;SDS011;40326;51.220;7.250;2023-03-01T15:03:01;13.05;;;7.05;;
54416;SDS011;40326;51.220;7.250;2023-03-01T15:05:32;10.40;;;6.80;;
54416;SDS011;40326;51.220;7.250;2023-03-01T15:07:58;9.70;;;6.35;;
54416;SDS011;40326;51.220;7.250;2023-03-01T15:10:28;10.50;;;6.18;;
54416;SDS011;40326;51.220;7.250;2023-03-01T15:12:54;9.68;;;5.70;;
54416;SDS011;40326;51.220;7.250;2023-03-01T15:15:30;9.50;;;6.38;;
54416;SDS011;40326;51.220;7.250;2023-03-01T15:17:56;9.13;;;6.07;;
54416;SDS011;40326;51.220;7.250;2023-03-01T15:20:24;8.98;;;6.30;;
54416;SDS011;40326;51.220;7.250;2023-03-01T15:22:50;10.38;;;6.53;;
54416;SDS011;40326;51.220;7.250;2023-03-01T15:25:16;11.45;;;6.38;;
54416;SDS011;40326;51.220;7.250;2023-03-01T15:27:46;9.77;;;6.05;;
54416;SDS011;40326;51.220;7.250;2023-03-01T15:30:23;10.10;;;6.05;;
54416;SDS011;40326;51.220;7.250;2023-03-01T15:33:15;9.98;;;6.38;;
54416;SDS011;40326;51.220;7.250;2023-03-01T15:35:44;8.35;;;6.05;;
54416;SDS011;40326;51.220;7.250;2023-03-01T15:40:57;8.18;;;6.05;;
54416;SDS011;40326;51.220;7.250;2023-03-01T15:46:12;10.20;;;7.00;;
54416;SDS011;40326;51.220;7.250;2023-03-01T15:48:43;11.95;;;7.22;;
54416;SDS011;40326;51.220;7.250;2023-03-01T15:51:09;9.25;;;5.80;;
54416;SDS011;40326;51.220;7.250;2023-03-01T15:53:36;8.93;;;5.80;;
54416;SDS011;40326;51.220;7.250;2023-03-01T15:56:02;11.68;;;6.03;;
54416;SDS011;40326;51.220;7.250;2023-03-01T15:58:27;8.90;;;5.93;;
54416;SDS011;40326;51.220;7.250;2023-03-01T16:00:52;9.90;;;6.22;;
54416;SDS011;40326;51.220;7.250;2023-03-01T16:03:21;9.30;;;6.13;;
54416;SDS011;40326;51.220;7.250;2023-03-01T16:05:47;9.73;;;5.90;;
54416;SDS011;40326;51.220;7.250;2023-03-01T16:08:12;9.00;;;5.57;;